Reklama

Seznam meteostanic a jejich METAR

Vyhledat místa podle abecedy:
A B C D E F G H I J K L M N O P Q R S T U V W X Y Z

Filtrovat:

ID stanice:
a/nebo
Název místa (fulltext):
 
Místo (ID)Naposledy načteno 
Iasi (LRIA) 06.12.2019 00:00 UTC Zobrazit METAR
LRIA 060000Z 09009KT 6000 NSC M03/M04 Q1024
Ibiza (LEIB) 05.12.2019 23:00 UTC Zobrazit METAR
LEIB 052300Z 35004KT 9999 FEW030 12/11 Q1021 NOSIG
Innsbruck (LOWI) 05.12.2019 23:50 UTC Zobrazit METAR
LOWI 052350Z AUTO VRB02KT 9999 NSC M03/M04 Q1023
Iraklion (LGIR) 05.12.2019 23:50 UTC Zobrazit METAR
LGIR 052350Z 34015KT 9999 FEW018 BKN030 14/07 Q1024 NOSIG
Isafjordur (BIIS) 05.12.2019 20:11 UTC Zobrazit METAR
BIIS 052011Z 03018KT 9999 FEW020 BKN035 01/M05 Q0991
Isla de Pascua (SCIP) 06.12.2019 00:00 UTC Zobrazit METAR
SCIP 060000Z 08009KT 030V110 9999 BKN020 BKN040 23/18 Q1021 NOSIG
Islamabad (OPRN) 25.10.2019 10:00 UTC Zobrazit METAR
OPRN 251000Z 36006KT 5000 FU NSC 37/17 Q1009 NOSIG
Istanbul (LTBA) 05.12.2019 23:50 UTC Zobrazit METAR
LTBA 052350Z 04006KT CAVOK 08/03 Q1029 NOSIG
Ivano-Frankivs'k (UKLI) Zatím nenačteno  
Reklama

Počasí na Váš email

Emaily jsou bez reklamy a bez spamu



Odhlásit newsletter

Reklama


Lunární kalendář

  • 12.12.
  • 19.12.
  • 26.12.
  • 03.01.



Reklama


Reklama
Povinné ručení
Reklama



Reklama